Time;durP1;ratioP1;P1;durP2;ratioP2;P2;SDS_P1;SDS_P2;PMS_P1;PMS_P2;Temp;Humidity;BMP_temperature;BMP_pressure;BME280_temperature;BME280_humidity;BME280_pressure;Samples;Min_cycle;Max_cycle;Signal;HPM_P1;HPM_P2
2021/07/19 00:01:28;;;;;;;;;10.00;7.75;;;;;23.93;51.90;101614.88;5034679;28;45397;-74
2021/07/19 00:03:54;;;;;;;;;8.00;8.00;;;;;23.89;52.38;101613.38;5033392;28;45365;-73
2021/07/19 00:06:20;;;;;;;;;7.00;6.00;;;;;23.86;52.29;101608.22;5033035;28;45232;-74
2021/07/19 00:08:45;;;;;;;;;8.33;8.33;;;;;23.83;52.09;101619.09;5033761;28;46289;-74
2021/07/19 00:11:11;;;;;;;;;7.33;5.00;;;;;23.80;52.13;101621.97;5033671;28;45315;-74
2021/07/19 00:13:37;;;;;;;;;7.67;7.33;;;;;23.77;52.63;101620.34;5035907;28;45273;-75
2021/07/19 00:16:02;;;;;;;;;7.25;7.25;;;;;23.72;52.60;101609.91;5033465;28;47041;-74
2021/07/19 00:18:27;;;;;;;;;9.33;8.00;;;;;23.69;52.37;101619.91;5033294;28;45576;-74
2021/07/19 00:20:53;;;;;;;;;7.50;7.50;;;;;23.65;52.46;101608.56;5033007;28;45384;-75
2021/07/19 00:23:18;;;;;;;;;7.50;7.50;;;;;23.62;52.54;101608.78;5033773;28;45335;-74
2021/07/19 00:25:44;;;;;;;;;6.50;5.25;;;;;23.59;52.77;101610.75;5035545;28;45330;-74
2021/07/19 00:28:09;;;;;;;;;8.50;8.00;;;;;23.56;52.90;101610.94;5031567;28;47778;-74
2021/07/19 00:30:37;;;;;;;;;9.50;9.50;;;;;23.54;53.14;101613.72;5034241;28;45466;-74
2021/07/19 00:33:04;;;;;;;;;7.25;7.25;;;;;23.50;52.51;101610.38;5033149;28;45456;-74
2021/07/19 00:35:30;;;;;;;;;8.50;8.50;;;;;23.47;52.85;101621.22;5032982;28;45534;-74
2021/07/19 00:37:56;;;;;;;;;7.00;7.00;;;;;23.45;52.91;101622.28;5035203;28;46214;-74
2021/07/19 00:40:24;;;;;;;;;8.00;7.75;;;;;23.42;52.94;101622.47;5032040;28;47135;-74
2021/07/19 00:42:50;;;;;;;;;7.50;7.50;;;;;23.38;53.07;101620.94;5033277;28;45351;-74
2021/07/19 00:45:18;;;;;;;;;6.00;6.00;;;;;23.35;53.32;101619.31;5032973;28;45462;-74
2021/07/19 00:47:46;;;;;;;;;7.25;7.00;;;;;23.32;53.53;101614.16;5033199;28;46197;-74
2021/07/19 00:50:13;;;;;;;;;12.50;7.75;;;;;23.29;53.67;101611.66;5032426;28;45246;-74
2021/07/19 00:52:39;;;;;;;;;7.00;7.00;;;;;23.26;53.59;101611.84;5050751;28;45638;-75
2021/07/19 00:55:05;;;;;;;;;7.00;7.00;;;;;23.23;53.91;101615.56;5032684;28;45497;-75
2021/07/19 00:57:32;;;;;;;;;7.25;7.25;;;;;23.22;53.38;101621.00;5032622;28;46148;-74
2021/07/19 01:00:01;;;;;;;;;9.00;9.00;;;;;23.19;54.22;101616.72;5033011;28;45308;-74
2021/07/19 01:02:28;;;;;;;;;8.50;7.25;;;;;23.17;53.87;101620.38;5017193;28;45526;-75
2021/07/19 01:04:55;;;;;;;;;6.00;6.00;;;;;23.15;54.14;101622.31;5030631;28;45343;-74
2021/07/19 01:07:22;;;;;;;;;6.75;6.75;;;;;23.11;54.27;101619.81;5031065;28;46350;-74
2021/07/19 01:09:50;;;;;;;;;10.75;8.50;;;;;23.09;54.21;101620.84;5039001;28;45558;-74
2021/07/19 01:12:15;;;;;;;;;7.50;7.50;;;;;23.06;53.98;101619.22;5032909;28;45439;-74
2021/07/19 01:14:41;;;;;;;;;7.00;6.50;;;;;23.04;54.20;101612.25;5032825;28;45454;-74
2021/07/19 01:17:07;;;;;;;;;8.50;7.50;;;;;23.01;54.52;101612.44;5033557;28;45248;-75
2021/07/19 01:19:36;;;;;;;;;6.50;6.50;;;;;22.98;54.30;101615.25;5034240;28;45324;-75
2021/07/19 01:22:11;;;;;;;;;6.50;6.25;;;;;22.96;54.63;101614.50;5032489;28;45366;-74
2021/07/19 01:24:49;;;;;;;;;9.00;7.75;;;;;22.94;54.56;101613.72;5032644;28;45546;-75
2021/07/19 01:27:52;;;;;;;;;8.50;7.75;;;;;22.90;54.85;101610.34;5030823;28;47244;-75
2021/07/19 01:30:18;;;;;;;;;9.50;9.50;;;;;22.87;54.93;101613.22;5032332;28;45471;-75
2021/07/19 01:32:48;;;;;;;;;8.50;7.50;;;;;22.84;55.48;101614.25;5032255;28;45423;-75
2021/07/19 01:35:15;;;;;;;;;9.75;8.50;;;;;22.79;54.87;101605.66;5032037;28;45518;-75
2021/07/19 01:37:43;;;;;;;;;9.75;9.75;;;;;22.77;55.22;101604.88;5034172;28;46333;-74
2021/07/19 01:40:10;;;;;;;;;10.75;10.75;;;;;22.75;55.47;101608.59;5034081;28;45316;-74
2021/07/19 01:42:40;;;;;;;;;11.75;10.50;;;;;22.70;55.28;101603.50;5035803;28;45563;-75
2021/07/19 01:45:08;;;;;;;;;10.50;9.75;;;;;22.67;55.87;101609.03;5034364;28;45368;-74
2021/07/19 01:47:34;;;;;;;;;10.00;8.75;;;;;22.63;56.02;101607.47;5034219;28;45578;-74
2021/07/19 01:50:01;;;;;;;;;10.25;8.00;;;;;22.60;55.81;101605.00;5037192;28;45312;-74
2021/07/19 01:52:26;;;;;;;;;10.25;9.00;;;;;22.58;55.83;101613.06;5036598;28;45472;-75
2021/07/19 01:54:52;;;;;;;;;9.25;9.25;;;;;22.55;56.14;101607.03;5035703;28;45549;-75
2021/07/19 01:57:18;;;;;;;;;8.00;8.00;;;;;22.55;56.37;101604.38;5035609;28;47397;-75
2021/07/19 01:59:45;;;;;;;;;12.00;10.25;;;;;22.51;56.17;101610.84;5035583;28;45515;-75
2021/07/19 02:02:11;;;;;;;;;13.25;11.75;;;;;22.47;56.34;101616.34;5035576;28;45556;-75
2021/07/19 02:04:37;;;;;;;;;11.25;9.50;;;;;22.45;56.40;101610.25;5034302;28;45538;-75
2021/07/19 02:07:03;;;;;;;;;8.00;8.00;;;;;22.43;57.13;101617.47;5035136;28;46153;-74
2021/07/19 02:09:32;;;;;;;;;14.25;11.00;;;;;22.39;56.72;101610.59;5035758;28;45555;-74
2021/07/19 02:12:03;;;;;;;;;10.75;8.75;;;;;22.36;56.88;101609.91;5035644;28;45241;-75
2021/07/19 02:14:28;;;;;;;;;9.00;9.00;;;;;22.34;56.88;101611.78;5020452;28;45345;-75
2021/07/19 02:16:55;;;;;;;;;9.00;8.50;;;;;22.31;56.87;101607.50;5036899;28;45288;-75
2021/07/19 02:19:24;;;;;;;;;14.50;11.75;;;;;22.27;57.10;101606.78;5035846;28;45265;-75
2021/07/19 02:21:50;;;;;;;;;13.25;13.00;;;;;22.25;56.90;101607.81;5035160;28;45352;-75
2021/07/19 02:24:20;;;;;;;;;11.00;8.75;;;;;22.24;57.29;101608.78;5033533;28;45602;-75
2021/07/19 02:26:46;;;;;;;;;12.00;10.00;;;;;22.22;57.39;101600.00;5033587;28;46171;-75
2021/07/19 02:29:12;;;;;;;;;11.75;10.50;;;;;22.19;57.42;101609.00;5035071;28;45628;-75
2021/07/19 02:31:39;;;;;;;;;11.75;11.00;;;;;22.18;57.53;101606.41;5037103;28;45285;-75
2021/07/19 02:34:05;;;;;;;;;13.00;11.00;;;;;22.15;57.79;101610.09;5034910;28;45450;-75
2021/07/19 02:36:30;;;;;;;;;11.50;11.50;;;;;22.13;57.70;101613.81;5034639;28;46812;-75
2021/07/19 02:38:57;;;;;;;;;11.25;10.50;;;;;22.11;57.72;101616.53;5035278;28;45451;-75
2021/07/19 02:41:25;;;;;;;;;11.75;9.25;;;;;22.09;57.62;101621.09;5035360;28;45282;-75
2021/07/19 02:43:53;;;;;;;;;12.00;12.00;;;;;22.05;58.10;101611.56;5037089;28;45577;-75
2021/07/19 02:46:24;;;;;;;;;14.25;11.00;;;;;22.02;57.94;101615.25;5034407;28;46532;-75
2021/07/19 02:48:54;;;;;;;;;14.00;12.75;;;;;21.99;58.10;101611.88;5034800;28;45598;-75
2021/07/19 02:51:22;;;;;;;;;10.00;8.25;;;;;21.96;58.19;101610.25;5033680;28;45355;-75
2021/07/19 02:53:50;;;;;;;;;15.00;13.25;;;;;21.94;58.25;101606.81;5034704;28;45325;-74
2021/07/19 02:56:17;;;;;;;;;10.00;10.00;;;;;21.92;58.32;101608.69;5034624;28;45321;-74
2021/07/19 02:58:43;;;;;;;;;6.50;6.50;;;;;21.90;58.32;101615.03;5036666;28;45341;-75
2021/07/19 03:01:11;;;;;;;;;20.50;13.00;;;;;21.88;58.32;101611.59;5033930;28;45611;-75
2021/07/19 03:03:38;;;;;;;;;12.00;12.00;;;;;21.85;58.38;101610.81;5032963;28;45383;-74
2021/07/19 03:06:06;;;;;;;;;14.50;12.75;;;;;21.83;58.59;101611.84;5032944;28;46869;-75
2021/07/19 03:08:37;;;;;;;;;11.25;10.50;;;;;21.81;58.64;101611.09;5034790;28;45472;-75
2021/07/19 03:11:07;;;;;;;;;13.00;12.00;;;;;21.79;58.73;101607.63;5036013;28;45348;-75
2021/07/19 03:13:34;;;;;;;;;10.00;10.00;;;;;21.79;58.74;101615.63;5036180;28;45550;-75
2021/07/19 03:16:00;;;;;;;;;12.00;8.00;;;;;21.76;58.88;101610.44;5033799;28;46219;-75
2021/07/19 03:18:26;;;;;;;;;11.00;11.00;;;;;21.74;59.02;101607.03;5034189;28;45406;-74
2021/07/19 03:20:54;;;;;;;;;12.75;10.50;;;;;21.72;58.74;101612.44;5034529;28;45379;-75
2021/07/19 03:23:23;;;;;;;;;13.75;12.50;;;;;21.70;58.75;101608.97;5034484;28;45391;-74
2021/07/19 03:25:50;;;;;;;;;19.50;16.50;;;;;21.67;58.93;101600.31;5036458;28;46142;-75
2021/07/19 03:28:19;;;;;;;;;12.75;10.50;;;;;21.63;59.33;101608.44;5033828;28;45327;-75
2021/07/19 03:30:45;;;;;;;;;14.50;13.25;;;;;21.61;58.88;101609.47;5033958;28;45284;-75
2021/07/19 03:33:11;;;;;;;;;14.00;11.00;;;;;21.59;59.42;101598.88;5034215;28;45445;-75
2021/07/19 03:35:37;;;;;;;;;10.00;8.00;;;;;21.57;59.39;101598.13;5033755;28;46243;-74
2021/07/19 03:38:03;;;;;;;;;12.50;12.50;;;;;21.57;59.19;101597.22;5035165;28;45363;-74
2021/07/19 03:40:29;;;;;;;;;13.75;13.00;;;;;21.55;59.27;101600.00;5034718;28;45411;-75
2021/07/19 03:42:57;;;;;;;;;11.25;11.25;;;;;21.54;59.47;101600.91;5032092;28;45344;-75
2021/07/19 03:45:24;;;;;;;;;10.75;10.25;;;;;21.52;59.34;101596.63;5031592;28;46330;-74
2021/07/19 03:47:50;;;;;;;;;12.25;12.25;;;;;21.50;59.37;101594.06;5033569;28;45568;-75
2021/07/19 03:50:16;;;;;;;;;15.25;13.00;;;;;21.50;59.48;101601.16;5033575;28;45518;-74
2021/07/19 03:52:43;;;;;;;;;15.50;13.75;;;;;21.49;59.72;101594.97;5036008;28;45300;-75
2021/07/19 03:55:12;;;;;;;;;12.50;10.50;;;;;21.48;59.45;101595.09;5033262;28;47075;-75
2021/07/19 03:57:39;;;;;;;;;10.75;10.75;;;;;21.47;59.52;101593.34;5033240;28;45469;-75
2021/07/19 04:00:10;;;;;;;;;14.50;13.75;;;;;21.45;60.05;101589.91;5031349;28;45373;-74
2021/07/19 04:02:37;;;;;;;;;17.25;11.50;;;;;21.43;60.05;101597.97;5033376;28;45614;-75
2021/07/19 04:05:07;;;;;;;;;11.50;11.50;;;;;21.42;60.00;101588.25;5035072;28;47201;-74
2021/07/19 04:07:36;;;;;;;;;50.00;42.50;;;;;21.41;60.36;101597.19;5034595;28;45313;-74
2021/07/19 04:10:05;;;;;;;;;16.00;13.25;;;;;21.40;60.42;101595.47;5033068;28;45454;-74
2021/07/19 04:12:31;;;;;;;;;13.75;13.75;;;;;21.38;60.47;101590.19;5032362;28;45443;-74
2021/07/19 04:14:57;;;;;;;;;13.75;12.25;;;;;21.37;60.72;101591.13;5032716;28;47134;-74
2021/07/19 04:17:22;;;;;;;;;14.00;13.75;;;;;21.37;60.59;101595.59;5032749;28;45431;-76
2021/07/19 04:19:48;;;;;;;;;25.25;22.00;;;;;21.35;60.84;101598.31;5034987;28;45757;-74
2021/07/19 04:22:14;;;;;;;;;13.50;12.50;;;;;21.33;60.35;101591.34;5031237;28;45548;-74
2021/07/19 04:24:39;;;;;;;;;12.75;12.75;;;;;21.32;60.75;101589.66;5031246;28;45431;-74
2021/07/19 04:27:05;;;;;;;;;15.00;13.25;;;;;21.30;60.85;101587.06;5032129;28;45405;-75
2021/07/19 04:29:31;;;;;;;;;17.50;16.25;;;;;21.31;60.85;101595.91;5033204;28;45509;-74
2021/07/19 04:31:58;;;;;;;;;16.25;13.25;;;;;21.31;60.86;101588.78;5034962;28;45344;-74
2021/07/19 04:34:34;;;;;;;;;16.00;13.75;;;;;21.31;61.00;101593.22;5032394;28;45372;-74
2021/07/19 04:37:02;;;;;;;;;15.00;13.75;;;;;21.32;60.76;101598.50;5020669;28;45578;-74
2021/07/19 04:39:28;;;;;;;;;13.00;13.00;;;;;21.32;61.01;101589.66;5025129;28;45480;-74
2021/07/19 04:41:54;;;;;;;;;14.25;12.75;;;;;21.32;60.97;101592.31;5030433;28;45826;-74
2021/07/19 04:44:20;;;;;;;;;13.75;13.75;;;;;21.31;60.90;101593.22;5032227;28;46259;-75
2021/07/19 04:46:45;;;;;;;;;14.75;13.00;;;;;21.32;60.62;101597.63;5034537;28;45418;-74
2021/07/19 04:49:11;;;;;;;;;17.75;15.00;;;;;21.32;60.94;101593.16;5032052;28;46118;-72
2021/07/19 04:51:37;;;;;;;;;16.25;15.25;;;;;21.32;60.94;101595.84;5031384;28;45425;-72
2021/07/19 04:54:05;;;;;;;;;14.50;14.50;;;;;21.36;60.98;101591.22;5031671;28;45773;-76
2021/07/19 04:56:32;;;;;;;;;13.75;12.00;;;;;21.38;60.54;101595.53;5031531;28;45544;-75
2021/07/19 04:59:00;;;;;;;;;14.00;14.00;;;;;21.37;60.85;101593.78;5033422;28;45229;-75
2021/07/19 05:01:28;;;;;;;;;18.00;16.50;;;;;21.39;60.86;101596.38;5033237;28;45439;-76
2021/07/19 05:03:56;;;;;;;;;14.00;12.75;;;;;21.42;60.69;101597.09;5030625;28;46255;-76
2021/07/19 05:06:25;;;;;;;;;14.00;12.25;;;;;21.46;60.59;101595.16;5031242;28;45465;-77
2021/07/19 05:08:52;;;;;;;;;14.50;14.50;;;;;21.49;60.89;101596.78;5031982;28;45528;-76
2021/07/19 05:11:21;;;;;;;;;14.25;14.25;;;;;21.52;60.34;101600.13;5031969;28;45320;-78
2021/07/19 05:13:47;;;;;;;;;16.25;15.00;;;;;21.56;60.17;101598.19;5033615;28;47045;-77
2021/07/19 05:16:13;;;;;;;;;17.00;16.00;;;;;21.58;60.56;101598.97;5034191;28;45491;-76
2021/07/19 05:18:40;;;;;;;;;19.25;16.75;;;;;21.60;60.43;101605.09;5034008;28;45572;-76
2021/07/19 05:21:07;;;;;;;;;13.00;11.50;;;;;21.63;60.34;101610.25;5033440;28;45552;-76
2021/07/19 05:23:32;;;;;;;;;17.75;13.25;;;;;21.64;60.19;101609.28;5035276;28;47138;-76
2021/07/19 05:25:57;;;;;;;;;17.75;14.75;;;;;21.67;60.14;101605.63;5036518;28;45295;-75
2021/07/19 05:28:23;;;;;;;;;13.00;13.00;;;;;21.70;59.82;101608.97;5035306;28;45444;-76
2021/07/19 05:30:51;;;;;;;;;21.75;16.00;;;;;21.74;60.11;101617.69;5035123;28;45589;-75
2021/07/19 05:33:19;;;;;;;;;16.50;15.00;;;;;21.77;59.99;101606.84;5034740;28;46449;-76
2021/07/19 05:35:44;;;;;;;;;15.00;12.75;;;;;21.79;59.95;101613.81;5034894;28;45486;-75
2021/07/19 05:38:10;;;;;;;;;16.25;14.75;;;;;21.84;59.70;101610.91;5035197;28;45345;-76
2021/07/19 05:40:36;;;;;;;;;15.00;13.00;;;;;21.89;59.52;101610.66;5037020;28;45391;-75
2021/07/19 05:43:03;;;;;;;;;16.25;16.25;;;;;21.91;59.63;101612.31;5033081;28;46548;-75
2021/07/19 05:45:29;;;;;;;;;14.00;13.50;;;;;21.95;59.35;101613.88;5034736;28;45308;-74
2021/07/19 05:47:55;;;;;;;;;21.50;17.75;;;;;22.00;59.38;101618.91;5035118;28;45275;-75
2021/07/19 05:50:21;;;;;;;;;17.00;15.75;;;;;22.03;59.43;101614.31;5034920;28;45467;-75
2021/07/19 05:52:47;;;;;;;;;14.75;13.50;;;;;22.06;59.26;101616.78;5036516;28;46168;-75
2021/07/19 05:55:13;;;;;;;;;16.75;14.25;;;;;22.11;59.20;101610.34;5034051;28;45372;-75
2021/07/19 05:57:38;;;;;;;;;13.75;13.50;;;;;22.15;59.17;101612.78;5033922;28;45292;-75
2021/07/19 06:00:10;;;;;;;;;16.75;15.50;;;;;22.18;59.24;101615.25;5034418;28;45368;-75
2021/07/19 06:02:35;;;;;;;;;13.00;13.00;;;;;22.22;58.81;101608.00;5034750;28;47335;-72
2021/07/19 06:05:01;;;;;;;;;16.00;16.00;;;;;22.26;58.65;101615.75;5035704;28;45219;-73
2021/07/19 06:07:26;;;;;;;;;14.75;13.00;;;;;22.31;58.60;101606.59;5034451;28;45355;-74
2021/07/19 06:09:51;;;;;;;;;15.25;14.75;;;;;22.36;58.53;101610.75;5049102;28;45698;-73
2021/07/19 06:12:17;;;;;;;;;17.50;17.50;;;;;22.41;58.32;101614.03;5033982;28;45437;-75
2021/07/19 06:14:43;;;;;;;;;22.75;17.75;;;;;22.44;58.57;101616.50;5034217;28;45571;-73
2021/07/19 06:17:12;;;;;;;;;13.75;12.75;;;;;22.50;58.01;101612.66;5035666;28;45342;-73
2021/07/19 06:19:38;;;;;;;;;14.50;13.75;;;;;22.54;58.13;101608.00;5034303;28;45373;-74
2021/07/19 06:22:04;;;;;;;;;14.25;13.00;;;;;22.56;58.14;101606.09;5032413;28;46994;-74
2021/07/19 06:24:29;;;;;;;;;15.25;15.00;;;;;22.59;58.03;101604.09;5033048;28;45443;-74
2021/07/19 06:26:54;;;;;;;;;19.50;16.25;;;;;22.64;57.81;101614.53;5033418;28;45281;-74
2021/07/19 06:29:20;;;;;;;;;20.50;16.50;;;;;22.67;57.92;101612.56;5034194;28;45281;-75
2021/07/19 06:31:45;;;;;;;;;18.50;14.25;;;;;22.72;57.54;101614.09;5035723;28;46403;-74
2021/07/19 06:34:10;;;;;;;;;14.50;12.25;;;;;22.74;57.64;101614.84;5033289;28;45543;-75
2021/07/19 06:36:37;;;;;;;;;16.50;16.50;;;;;22.78;57.50;101614.59;5033753;28;45586;-73
2021/07/19 06:39:04;;;;;;;;;16.00;14.75;;;;;22.80;57.59;101612.69;5033614;28;45447;-71
2021/07/19 06:41:30;;;;;;;;;17.75;13.75;;;;;22.85;57.55;101617.78;5033373;28;47201;-71
2021/07/19 06:43:56;;;;;;;;;16.00;15.50;;;;;22.89;57.34;101604.16;5035382;28;45493;-71
2021/07/19 06:46:21;;;;;;;;;14.75;13.00;;;;;22.93;57.05;101603.97;5033463;28;45531;-71
2021/07/19 06:48:46;;;;;;;;;20.75;20.75;;;;;22.97;57.33;101606.38;5033904;28;45478;-70
2021/07/19 06:51:12;;;;;;;;;16.00;13.50;;;;;22.99;56.92;101607.19;5033033;28;46052;-70
2021/07/19 06:53:37;;;;;;;;;15.50;15.50;;;;;23.02;57.11;101601.66;5032667;28;45448;-70
2021/07/19 06:56:03;;;;;;;;;20.00;16.00;;;;;23.08;57.05;101600.44;5033310;28;45390;-71
2021/07/19 06:58:28;;;;;;;;;21.25;16.75;;;;;23.13;57.32;101598.34;5031876;28;45407;-70
2021/07/19 07:00:53;;;;;;;;;14.00;14.00;;;;;23.19;57.19;101598.00;5031223;28;46998;-71
2021/07/19 07:03:18;;;;;;;;;21.00;15.75;;;;;23.24;56.78;101595.91;5032360;28;45404;-71
2021/07/19 07:05:44;;;;;;;;;23.75;22.25;;;;;23.28;56.95;101589.41;5032504;28;45466;-71
2021/07/19 07:08:09;;;;;;;;;17.75;16.25;;;;;23.35;56.41;101597.06;5033144;28;45349;-70
2021/07/19 07:10:35;;;;;;;;;17.00;14.00;;;;;23.38;56.58;101597.72;5033813;28;47887;-70
2021/07/19 07:13:00;;;;;;;;;14.25;12.75;;;;;23.44;56.46;101602.72;5032319;28;45401;-70
2021/07/19 07:15:26;;;;;;;;;16.00;15.25;;;;;23.49;56.60;101597.94;5032319;28;45366;-70
2021/07/19 07:17:51;;;;;;;;;18.75;18.00;;;;;23.55;56.32;101602.09;5032756;28;45245;-71
2021/07/19 07:20:17;;;;;;;;;15.25;13.25;;;;;23.61;56.50;101600.84;5031893;28;45388;-70
2021/07/19 07:22:43;;;;;;;;;17.50;16.25;;;;;23.68;55.83;101602.19;5034200;28;45414;-70
2021/07/19 07:25:10;;;;;;;;;29.00;19.00;;;;;23.74;55.56;101604.50;5032480;28;45800;-70
2021/07/19 07:27:36;;;;;;;;;16.75;16.75;;;;;23.77;55.92;101592.78;5032827;28;45466;-70
2021/07/19 07:30:07;;;;;;;;;14.50;12.00;;;;;23.81;55.98;101588.94;5031877;28;45419;-71
2021/07/19 07:32:35;;;;;;;;;16.50;14.00;;;;;23.87;55.77;101591.22;5031785;28;45310;-70
2021/07/19 07:35:02;;;;;;;;;19.00;14.75;;;;;23.92;55.11;101594.47;5034310;28;45477;-71
2021/07/19 07:37:28;;;;;;;;;19.25;15.75;;;;;23.98;55.01;101595.88;5031180;28;45509;-71
2021/07/19 07:39:53;;;;;;;;;18.00;13.50;;;;;24.06;55.18;101602.47;5030804;28;46253;-70
2021/07/19 07:42:18;;;;;;;;;15.50;14.00;;;;;24.13;54.31;101600.28;5032190;28;45462;-71
2021/07/19 07:44:44;;;;;;;;;15.00;13.00;;;;;24.19;54.69;101594.53;5032450;28;45723;-71
2021/07/19 07:47:09;;;;;;;;;11.50;11.50;;;;;24.27;54.16;101600.25;5032933;28;45189;-71
2021/07/19 07:49:37;;;;;;;;;17.00;14.75;;;;;24.36;53.83;101597.00;5034312;28;46190;-71
2021/07/19 07:52:03;;;;;;;;;11.00;11.00;;;;;24.43;53.38;101594.78;5032169;28;45378;-71
2021/07/19 07:54:28;;;;;;;;;10.00;10.00;;;;;24.50;52.96;101596.13;5032533;28;45374;-71
2021/07/19 07:56:54;;;;;;;;;19.75;15.25;;;;;24.57;52.70;101588.53;5032445;28;45461;-71
2021/07/19 07:59:19;;;;;;;;;10.67;10.67;;;;;24.64;52.34;101589.00;5031812;28;46296;-71
2021/07/19 08:01:44;;;;;;;;;16.75;14.25;;;;;24.74;52.08;101590.09;5033987;28;45408;-71
2021/07/19 08:04:10;;;;;;;;;11.25;10.50;;;;;24.82;51.76;101587.78;5031987;28;45485;-71
2021/07/19 08:06:35;;;;;;;;;14.50;10.50;;;;;24.90;51.44;101582.75;5031779;28;45550;-71
2021/07/19 08:09:01;;;;;;;;;15.25;13.00;;;;;24.97;50.88;101583.22;5031685;28;46012;-72
2021/07/19 08:11:26;;;;;;;;;13.50;13.50;;;;;25.07;50.73;101578.09;5032309;28;45353;-71
2021/07/19 08:13:52;;;;;;;;;9.67;9.33;;;;;25.17;50.33;101581.84;5034447;28;45372;-71
2021/07/19 08:16:18;;;;;;;;;12.25;11.25;;;;;25.26;49.98;101583.94;5030311;28;45749;-70
2021/07/19 08:18:43;;;;;;;;;12.00;10.75;;;;;25.40;49.67;101585.66;5030352;28;45985;-70
2021/07/19 08:21:08;;;;;;;;;10.67;7.67;;;;;25.53;49.37;101574.94;5031683;28;45523;-70
2021/07/19 08:23:34;;;;;;;;;10.67;9.33;;;;;25.66;48.65;101580.31;5032046;28;45502;-71
2021/07/19 08:25:59;;;;;;;;;16.50;11.00;;;;;25.79;48.42;101570.41;5033878;28;45458;-70
2021/07/19 08:28:24;;;;;;;;;10.33;10.33;;;;;25.90;47.72;101567.00;5032164;28;46255;-70
2021/07/19 08:30:50;;;;;;;;;10.00;8.00;;;;;26.01;47.60;101570.63;5031811;28;45380;-70
2021/07/19 08:33:15;;;;;;;;;7.67;7.67;;;;;26.15;46.55;101576.78;5032289;28;47843;-71
2021/07/19 08:35:40;;;;;;;;;11.33;7.67;;;;;26.27;45.80;101578.63;5031467;28;45585;-70
2021/07/19 08:38:06;;;;;;;;;10.00;8.00;;;;;26.38;45.45;101573.28;5033272;28;46314;-70
2021/07/19 08:40:32;;;;;;;;;18.25;16.75;;;;;26.53;45.22;101574.00;5033052;28;45422;-70
2021/07/19 08:42:59;;;;;;;;;11.25;11.25;;;;;26.66;44.40;101574.81;5031744;28;45435;-73
2021/07/19 08:45:25;;;;;;;;;15.75;15.25;;;;;26.82;43.58;101571.00;5030545;28;45457;-71
2021/07/19 08:47:52;;;;;;;;;7.00;7.00;;;;;26.97;44.45;101583.25;5031674;28;46944;-71
2021/07/19 08:50:20;;;;;;;;;11.33;11.33;;;;;27.09;43.22;101578.75;5029628;28;45417;-72
2021/07/19 08:52:48;;;;;;;;;11.67;7.67;;;;;27.21;44.03;101575.16;5033536;28;45389;-72
2021/07/19 08:55:18;;;;;;;;;12.67;11.00;;;;;27.36;43.52;101575.78;5029315;28;45442;-72
2021/07/19 08:57:49;;;;;;;;;14.25;11.50;;;;;27.49;43.16;101576.56;5029710;28;46500;-73
2021/07/19 09:00:17;;;;;;;;;8.33;6.67;;;;;27.66;42.75;101572.53;5031391;28;45354;-73
2021/07/19 09:02:43;;;;;;;;;9.00;9.00;;;;;27.76;42.96;101572.66;5031089;28;45435;-73
2021/07/19 09:05:10;;;;;;;;;9.00;8.00;;;;;27.87;42.06;101571.84;5032352;28;45265;-73
2021/07/19 09:07:35;;;;;;;;;6.00;5.67;;;;;27.95;41.93;101567.53;5032922;28;46498;-73
2021/07/19 09:10:01;;;;;;;;;8.00;8.00;;;;;28.12;42.43;101573.38;5031174;28;45368;-71
2021/07/19 09:12:33;;;;;;;;;6.33;5.33;;;;;28.25;41.99;101570.56;5031034;28;45530;-71
2021/07/19 09:15:00;;;;;;;;;9.33;8.00;;;;;28.41;41.53;101562.06;5031103;28;45489;-71
2021/07/19 09:17:28;;;;;;;;;9.33;7.00;;;;;28.56;40.91;101568.91;5014967;28;46122;-71
2021/07/19 09:19:54;;;;;;;;;7.33;7.33;;;;;28.66;40.18;101567.16;5029089;28;45462;-71
2021/07/19 09:22:31;;;;;;;;;8.67;7.67;;;;;28.77;40.47;101564.41;5030734;28;45381;-72
2021/07/19 09:25:14;;;;;;;;;11.00;10.50;;;;;28.96;40.76;101558.31;5030825;28;45530;-72
2021/07/19 09:27:54;;;;;;;;;10.33;7.00;;;;;29.17;39.85;101560.19;5030737;28;46096;-72
2021/07/19 09:30:22;;;;;;;;;7.00;6.67;;;;;29.37;39.56;101563.88;5030993;28;45322;-72
2021/07/19 09:33:06;;;;;;;;;7.67;7.33;;;;;29.50;38.93;101561.78;5030322;28;45368;-73
2021/07/19 09:35:33;;;;;;;;;7.67;6.67;;;;;29.58;38.90;101570.06;5016461;28;45511;-71
2021/07/19 09:38:06;;;;;;;;;9.33;8.33;;;;;29.69;37.92;101562.91;5032240;28;46157;-70
2021/07/19 09:40:34;;;;;;;;;8.00;7.00;;;;;29.79;38.34;101561.94;5032133;28;45446;-71
2021/07/19 09:43:11;;;;;;;;;12.67;10.33;;;;;29.96;37.89;101559.56;5031329;28;45491;-70
2021/07/19 09:45:36;;;;;;;;;12.75;11.75;;;;;30.08;37.50;101555.75;5030661;28;45395;-70
2021/07/19 09:48:05;;;;;;;;;9.33;8.33;;;;;30.18;37.49;101561.22;5031011;28;46587;-71
2021/07/19 09:50:50;;;;;;;;;10.00;9.67;;;;;30.28;37.20;101556.72;5031076;28;46156;-72
2021/07/19 09:53:31;;;;;;;;;6.33;6.33;;;;;30.45;36.77;101549.75;5030882;28;47300;-71
2021/07/19 09:56:32;;;;;;;;;8.33;7.00;;;;;30.68;36.24;101547.66;5029312;28;45435;-71
2021/07/19 09:59:09;;;;;;;;;11.67;10.00;;;;;30.89;36.38;101542.97;5029500;28;46190;-72
2021/07/19 10:01:37;;;;;;;;;9.67;9.67;;;;;31.05;35.97;101545.06;5034234;28;45317;-72
2021/07/19 10:04:06;;;;;;;;;9.00;7.33;;;;;31.23;35.97;101544.31;5033542;28;45396;-72
2021/07/19 10:06:33;;;;;;;;;8.67;6.67;;;;;31.38;35.45;101537.44;5033534;28;45454;-71
2021/07/19 10:08:59;;;;;;;;;8.00;7.67;;;;;31.57;35.31;101539.25;5033562;28;47032;-72
2021/07/19 10:11:33;;;;;;;;;5.67;5.67;;;;;31.76;35.19;101541.00;5032257;28;45647;-71
2021/07/19 10:14:00;;;;;;;;;9.33;7.33;;;;;31.94;34.46;101538.31;5031682;28;45434;-71
2021/07/19 10:16:28;;;;;;;;;7.67;7.00;;;;;32.10;33.92;101532.28;5031904;28;45450;-71
2021/07/19 10:18:54;;;;;;;;;9.33;7.33;;;;;32.17;33.86;101534.22;5033795;28;46938;-72
2021/07/19 10:21:26;;;;;;;;;7.67;6.67;;;;;32.28;33.44;101532.31;5033440;28;45278;-71
2021/07/19 10:23:52;;;;;;;;;7.67;7.67;;;;;32.42;32.24;101542.63;5033649;28;45407;-72
2021/07/19 10:26:18;;;;;;;;;1.67;1.67;;;;;32.50;32.37;101541.88;5033895;28;45537;-72
2021/07/19 10:28:43;;;;;;;;;11.33;11.33;;;;;32.56;32.89;101533.97;5035739;28;46843;-72
2021/07/19 10:31:10;;;;;;;;;9.33;8.00;;;;;32.67;32.22;101532.88;5033143;28;45284;-72
2021/07/19 10:33:37;;;;;;;;;8.33;8.33;;;;;32.73;31.93;101545.81;5033115;28;45337;-72
2021/07/19 10:36:06;;;;;;;;;10.00;9.00;;;;;32.82;31.99;101538.56;5033578;28;45581;-72
2021/07/19 10:38:34;;;;;;;;;14.00;10.67;;;;;32.93;31.63;101538.34;5033324;28;46504;-73
2021/07/19 10:41:00;;;;;;;;;9.00;8.67;;;;;33.04;31.08;101536.41;5035218;28;45237;-73
2021/07/19 10:43:30;;;;;;;;;7.33;7.33;;;;;33.10;32.11;101533.06;5033146;28;45309;-72
2021/07/19 10:46:06;;;;;;;;;6.33;6.33;;;;;33.19;30.98;101527.53;5033813;28;45528;-73
2021/07/19 10:48:32;;;;;;;;;9.00;9.00;;;;;33.28;31.20;101533.00;5033495;28;45448;-73
2021/07/19 10:51:12;;;;;;;;;8.33;8.33;;;;;33.36;30.93;101530.34;5031917;28;45464;-72
2021/07/19 10:53:37;;;;;;;;;8.00;8.00;;;;;33.49;30.88;101522.63;5017828;28;45292;-73
2021/07/19 10:56:05;;;;;;;;;9.33;9.33;;;;;33.59;30.71;101526.06;5034712;28;45419;-73
2021/07/19 10:58:42;;;;;;;;;9.67;8.67;;;;;33.74;30.69;101520.03;5033499;28;47143;-73
2021/07/19 11:01:19;;;;;;;;;13.33;9.67;;;;;33.86;30.17;101524.13;5033506;28;45561;-73
2021/07/19 11:03:45;;;;;;;;;8.00;6.33;;;;;33.95;29.96;101525.88;5033660;28;45469;-73
2021/07/19 11:06:11;;;;;;;;;9.00;7.67;;;;;34.13;30.37;101522.19;5033022;28;45405;-73
2021/07/19 11:08:47;;;;;;;;;8.00;8.00;;;;;34.29;29.41;101519.50;5033076;28;46260;-73
2021/07/19 11:11:12;;;;;;;;;12.00;9.33;;;;;34.36;29.29;101514.25;5033149;28;45604;-71
2021/07/19 11:13:37;;;;;;;;;11.67;9.67;;;;;34.53;29.01;101532.28;5033510;28;45480;-71
2021/07/19 11:16:14;;;;;;;;;6.67;6.67;;;;;34.77;28.78;101527.88;5033025;28;45535;-73